createdAt,value
2018-05-26T00:01:26.248Z,6.5
2018-05-26T00:11:26.133Z,5.8
2018-05-26T00:21:26.426Z,6.4
2018-05-26T00:31:26.306Z,6.4
2018-05-26T00:41:25.640Z,5.5
2018-05-26T00:51:26.486Z,5.9
2018-05-26T01:01:26.524Z,6.5
2018-05-26T01:11:28.083Z,5.8
2018-05-26T01:21:25.921Z,6.5
2018-05-26T01:31:25.790Z,8.7
2018-05-26T01:41:26.662Z,10.9
2018-05-26T01:51:25.692Z,11.4
2018-05-26T02:01:26.535Z,13.1
2018-05-26T02:11:26.381Z,12.4
2018-05-26T02:21:26.601Z,12.4
2018-05-26T02:31:25.378Z,11.3
2018-05-26T02:41:27.033Z,9.1
2018-05-26T02:51:26.653Z,9.6
2018-05-26T03:01:26.979Z,9.2
2018-05-26T03:11:24.898Z,9.1
2018-05-26T03:21:26.378Z,9.5
2018-05-26T03:31:27.089Z,10.0
2018-05-26T03:41:24.968Z,10.6
2018-05-26T03:51:30.101Z,10.5
2018-05-26T04:01:26.186Z,10.4
2018-05-26T04:11:26.257Z,10.1
2018-05-26T04:21:26.837Z,11.4
2018-05-26T04:31:27.088Z,11.8
2018-05-26T04:41:27.546Z,12.1
2018-05-26T04:51:27.665Z,10.5
2018-05-26T05:01:26.642Z,12.2
2018-05-26T05:11:26.537Z,10.0
2018-05-26T05:21:27.409Z,12.1
2018-05-26T05:31:25.514Z,14.3
2018-05-26T05:41:25.329Z,19.3
2018-05-26T05:51:25.492Z,11.9
2018-05-26T06:01:26.486Z,14.6
2018-05-26T06:11:26.124Z,12.2
2018-05-26T06:21:26.768Z,13.9
2018-05-26T06:31:26.399Z,13.3
2018-05-26T06:41:25.891Z,11.8
2018-05-26T06:51:26.641Z,12.7
2018-05-26T07:01:26.070Z,13.6
2018-05-26T07:11:25.906Z,11.9
2018-05-26T07:21:25.757Z,12.4
2018-05-26T07:31:25.991Z,10.5
2018-05-26T07:41:31.614Z,9.4
2018-05-26T07:51:26.472Z,7.6
2018-05-26T08:01:26.316Z,10.0
2018-05-26T08:11:25.413Z,6.4
2018-05-26T08:21:26.597Z,7.2
2018-05-26T08:31:26.617Z,6.8
2018-05-26T08:41:27.308Z,6.9
2018-05-26T08:51:25.916Z,6.2
2018-05-26T09:01:27.245Z,5.0
2018-05-26T09:11:25.443Z,5.9
2018-05-26T09:21:25.570Z,7.4
2018-05-26T09:31:26.868Z,9.7
2018-05-26T09:41:26.433Z,5.8
2018-05-26T09:51:25.884Z,5.7
2018-05-26T10:01:26.068Z,4.7
2018-05-26T10:11:26.468Z,5.3
2018-05-26T10:21:26.062Z,5.2
2018-05-26T10:31:26.484Z,4.3
2018-05-26T10:41:25.343Z,4.4
2018-05-26T10:51:27.793Z,4.7
2018-05-26T11:01:26.524Z,3.9
2018-05-26T11:11:27.187Z,3.6
2018-05-26T11:21:25.236Z,4.1
2018-05-26T11:31:26.514Z,4.2
2018-05-26T11:41:26.052Z,3.6
2018-05-26T11:51:26.879Z,3.4
2018-05-26T12:01:30.065Z,4.1
2018-05-26T12:11:26.170Z,4.0
2018-05-26T12:21:25.987Z,3.9
2018-05-26T12:31:25.570Z,3.9
2018-05-26T12:41:25.785Z,4.0
2018-05-26T12:51:26.326Z,4.8
2018-05-26T13:01:25.267Z,7.1
2018-05-26T13:11:26.705Z,5.5
2018-05-26T13:21:28.226Z,6.9
2018-05-26T13:31:25.545Z,8.4
2018-05-26T13:41:26.629Z,8.3
2018-05-26T13:51:25.570Z,7.6
2018-05-26T14:01:26.418Z,5.2
2018-05-26T14:11:26.790Z,5.6
2018-05-26T14:21:27.757Z,4.5
2018-05-26T14:31:26.740Z,4.5
2018-05-26T14:41:26.580Z,4.4
2018-05-26T14:51:26.751Z,4.5
2018-05-26T15:01:25.697Z,4.2
2018-05-26T15:11:26.283Z,4.7
2018-05-26T15:21:25.553Z,6.3
2018-05-26T15:31:25.499Z,4.9
2018-05-26T15:41:25.466Z,4.4
2018-05-26T15:51:25.595Z,5.7
2018-05-26T16:01:25.888Z,4.8
2018-05-26T16:11:25.992Z,3.9
2018-05-26T16:21:26.008Z,4.2
2018-05-26T16:31:27.423Z,4.6
2018-05-26T16:41:25.341Z,4.6
2018-05-26T16:51:25.526Z,5.4
2018-05-26T17:01:25.337Z,4.4
2018-05-26T17:11:25.374Z,6.7
2018-05-26T17:21:25.376Z,5.0
2018-05-26T17:31:25.540Z,5.0
2018-05-26T17:41:25.615Z,4.2
2018-05-26T17:51:27.011Z,4.7
2018-05-26T18:01:26.022Z,6.0
2018-05-26T18:11:26.653Z,5.0
2018-05-26T18:21:25.619Z,5.1
2018-05-26T18:31:25.505Z,5.1
2018-05-26T18:41:25.820Z,5.5
2018-05-26T18:51:26.298Z,5.5
2018-05-26T19:01:25.496Z,5.7
2018-05-26T19:11:25.251Z,6.3
2018-05-26T19:21:25.797Z,7.9
2018-05-26T19:31:25.610Z,5.7
2018-05-26T19:41:25.937Z,6.0
2018-05-26T19:51:27.300Z,6.1
2018-05-26T20:01:25.153Z,6.6
2018-05-26T20:11:27.305Z,6.6
2018-05-26T20:21:25.230Z,6.2
2018-05-26T20:31:26.078Z,6.8
2018-05-26T20:41:25.351Z,8.8
2018-05-26T20:51:25.460Z,7.2
2018-05-26T21:01:25.274Z,7.6
2018-05-26T21:11:25.958Z,8.5
2018-05-26T21:21:27.945Z,9.5
2018-05-26T21:31:26.218Z,9.5
2018-05-26T21:41:25.291Z,8.8
2018-05-26T21:51:25.365Z,9.3
2018-05-26T22:01:25.172Z,8.7
2018-05-26T22:11:27.135Z,9.9
2018-05-26T22:21:25.039Z,10.3
2018-05-26T22:31:26.096Z,10.9
2018-05-26T22:41:26.448Z,10.4
2018-05-26T22:51:24.838Z,11.4
2018-05-26T23:01:26.027Z,9.9
2018-05-26T23:11:25.901Z,10.7
2018-05-26T23:21:26.928Z,11.3
2018-05-26T23:31:25.637Z,11.6
2018-05-26T23:41:26.966Z,10.6
2018-05-26T23:51:27.085Z,12.0
